Accueil
METAR-TAF:

METAR-TAF

Aéroports :

Porterville Municipal Airport

Porterville, Californie, États-Unis

latitude: 36-02N, longitude: 119-04W, altitude: 135 m

Observation

Le bulletin a été fait il y a 1 heure et 17 minutes, à 14:56 UTC
Vent calme
Température 10°C
Humidité 66%
Pression 1017 hPa
Visibilité: 14.5 km
Ciel clair

METAR: KPTV 141456Z AUTO 00000KT 9SM CLR 10/04 A3004 RMK AO2 SLP174 T01000044 53015

Heure: 08:13 (16:13 UTC)


TAF: absent

Observations et prévisions météorologiques de plus de 4000 aéroports (messages METAR et TAF).

Les stations disponibles sont représentées par des disques jaunes et rouges sur la carte.

Passer la souris dessus pour voir le nom de la station.

Cliquer dessus pour voir les observations et prévisions météorologiques.

Pour changer de carte: cliquez sur les boutons verts avec une croix noire pour zoomer, sur le bouton vert avec un tiret pour effectuer un zoom arrière, ou sur les flèches vertes pour les cartes adjacentes.


METAR-TAF: